Etusivu
METAR-TAF:

METAR-TAF

Lentoasemat :

Sparta, Wisconsin, Yhdysvallat

Leveyspiiri: 43-57-30N, Pituuspiiri: 090-44-16W, korkeus merenpinnasta: 255 m

Tämänhetkinen sää

Tämä raportti tehtiin 29 minuuttia sitten, kello 09.15 UTC
tyyntä
Lämpötila 8°C
Kosteus 46%
Ilmanpaine 1011 hPa
Näkyvyys: 16.1 km
selkeää

METAR: KCMY 260915Z AUTO 00000KT 10SM CLR 08/M03 A2985 RMK AO2 T00831030

Aika: 04:44 (09:44 UTC)


TAF: puuttuu

Säähavainnot ja -ennusteet yli 4000 lentoasemalta (METAR- ja TAF-raportit).

Käytössä olevat sääasemat on merkitty karttaan keltaisilla ja punaisilla pisteillä.

Aseta hiiri pisteen päälle nähdäksesi sääaseman nimen.

Klikkaa sitten nähdäksesi säähavainnot ja -ennusteet.

Kartan vaihtaminen: klikkaa mustalla rastilla varustettuja vihreitä pisteitä, niin voit zoomata sisään; viivalla varustettua vihreää pistettä, niin voit zoomata ulos tai vihreitä nuolia, niin pääset viereisille kartoille.


METAR-TAF: